Date,TemperatureHighF,TemperatureAvgF,TemperatureLowF,DewpointHighF,DewpointAvgF,DewpointLowF,HumidityHigh,HumidityAvg,HumidityLow,PressureMaxIn,PressureMinIn,WindSpeedMaxMPH,WindSpeedAvgMPH,GustSpeedMaxMPH,PrecipitationSumIn
2013-1-1,23.5,19.0,8.5,21.0,14.5,4.0,89,82,76,30.24,30.09,8,1,0,0.00
2013-1-2,24.5,14.5,5.3,15.0,8.6,2.0,86,78,64,30.30,30.20,7,1,0,0.00
2013-1-3,31.1,23.3,15.3,27.0,19.0,11.0,87,83,80,30.35,30.20,10,2,0,0.00
2013-1-4,32.3,21.7,11.4,26.0,17.4,8.0,87,83,76,30.36,30.29,12,3,0,0.00
2013-1-5,35.1,29.4,20.7,32.0,25.9,18.0,91,86,79,30.31,30.04,11,3,0,0.01
2013-1-6,35.3,27.7,18.6,32.0,23.7,16.0,90,85,80,30.38,29.99,15,6,0,0.01
2013-1-7,36.1,26.7,16.8,28.0,22.4,15.0,92,84,72,30.42,30.18,18,4,0,0.00
2013-1-8,41.7,34.4,26.7,33.0,28.6,24.0,88,80,67,30.23,30.13,11,4,0,0.00
2013-1-9,49.3,41.0,31.5,39.0,33.1,25.0,86,74,59,30.51,30.12,14,3,0,0.00
2013-1-10,45.2,36.7,29.5,44.0,31.5,24.0,96,82,69,30.51,29.89,17,5,0,0.29
2013-1-11,56.1,52.6,45.7,54.0,49.6,45.0,97,90,81,29.89,29.73,15,8,0,0.12
2013-1-12,57.0,47.0,32.6,51.0,43.4,31.0,93,87,74,29.93,29.79,15,4,0,0.61
2013-1-13,32.7,25.8,15.9,31.0,23.2,11.0,94,89,81,30.30,29.81,6,0,0,0.00
2013-1-14,23.1,18.1,14.1,17.0,13.5,10.0,88,82,76,30.50,30.31,2,0,0,0.00
2013-1-15,29.4,22.4,14.1,22.0,18.1,12.0,90,83,74,30.45,30.13,7,1,0,0.00
2013-1-16,36.5,29.4,20.8,29.0,23.8,18.0,91,80,61,30.13,29.96,14,3,0,0.00
2013-1-17,34.2,29.5,20.4,30.0,22.7,16.0,90,76,59,30.44,30.08,14,2,0,0.00
2013-1-18,39.0,30.6,20.3,30.0,24.0,17.0,89,77,63,30.48,30.07,21,7,0,0.00
2013-1-19,50.9,40.9,35.5,38.0,33.3,30.0,83,75,60,30.08,29.82,24,10,0,0.00
2013-1-20,37.2,21.9,17.2,28.0,12.1,9.0,81,66,56,30.32,29.97,23,6,0,0.00
2013-1-21,18.6,12.2,6.1,13.0,3.2,-3.0,83,68,50,30.36,30.21,23,8,0,0.00
2013-1-22,15.1,9.4,3.1,3.0,-0.6,-2.0,79,65,48,30.46,30.34,13,4,0,0.00
2013-1-23,25.8,18.7,11.3,15.0,8.4,2.0,78,65,54,30.40,30.14,14,2,0,0.00
2013-1-24,23.6,17.0,8.1,10.0,5.7,1.0,74,62,44,30.64,30.32,11,2,0,0.00
2013-1-25,32.6,24.0,19.1,23.0,16.4,7.0,87,73,53,30.40,30.04,12,3,0,0.00
2013-1-26,31.7,22.5,11.9,17.0,13.3,8.0,84,70,46,30.43,30.18,6,1,0,0.00
2013-1-27,41.4,30.2,21.0,40.0,25.7,17.0,95,83,69,30.41,29.98,18,7,0,0.23
2013-1-28,55.5,49.5,42.2,55.0,48.3,41.0,97,95,94,30.00,29.86,21,6,0,0.02
2013-1-29,60.9,57.5,52.4,58.0,55.8,51.0,98,94,87,29.85,29.34,19,8,0,0.77
2013-1-30,52.8,40.4,22.3,51.0,38.0,17.0,97,91,79,29.70,29.25,25,10,0,0.19
2013-1-31,23.5,18.2,6.6,19.0,11.8,0.0,85,76,70,30.23,29.70,18,11,0,0.00
2013-2-1,20.8,12.2,3.7,13.0,4.4,-2.0,77,71,62,30.45,30.24,18,8,0,0.00
2013-2-2,27.9,21.0,12.2,24.0,17.0,8.0,90,85,74,30.24,30.02,14,4,0,0.00
2013-2-3,26.0,20.2,11.9,20.0,15.5,8.0,100,82,69,30.12,30.00,17,2,0,0.00
2013-2-4,38.4,29.2,23.1,31.0,24.0,19.0,86,81,73,30.08,29.80,13,3,0,0.01
2013-2-5,36.1,30.4,24.8,33.0,27.1,23.0,92,87,81,30.11,29.83,15,3,0,0.00
2013-2-6,40.1,33.8,29.7,31.0,27.9,26.0,86,79,67,30.27,30.11,15,3,0,0.00
2013-2-7,52.3,38.7,31.4,42.0,34.1,28.0,94,84,63,30.14,29.82,15,6,0,0.21
2013-2-8,33.7,30.5,26.6,32.0,27.5,24.0,93,88,84,30.39,29.91,15,5,0,0.00
2013-2-9,39.8,32.7,28.5,31.0,27.1,23.0,90,80,69,30.40,30.09,13,4,0,0.00
2013-2-10,51.6,42.5,34.3,49.0,39.5,28.0,94,89,75,30.11,29.60,28,11,0,0.26
2013-2-11,48.7,35.8,29.1,42.0,28.9,25.0,85,76,68,30.09,29.62,19,9,0,0.00
2013-2-12,32.3,29.2,25.8,27.0,25.3,23.0,92,85,80,30.14,29.95,11,2,0,0.00
2013-2-13,47.4,34.4,25.3,36.0,29.7,23.0,94,83,62,29.95,29.76,11,2,0,0.01
2013-2-14,41.4,36.7,32.1,36.0,32.0,29.0,89,83,74,30.00,29.74,15,4,0,0.00
2013-2-15,33.8,30.6,22.9,31.0,23.8,16.0,91,77,54,30.20,29.99,10,3,0,0.00
2013-2-16,24.4,20.4,15.4,17.0,12.1,7.0,84,71,57,30.21,30.13,11,4,0,0.00
2013-2-17,32.9,22.2,9.6,21.0,11.7,4.0,81,65,42,30.26,30.06,9,2,0,0.00
2013-2-18,53.1,41.0,28.8,45.0,34.2,20.0,94,77,64,30.06,29.50,23,10,0,0.32
2013-2-19,31.1,21.5,16.1,29.0,15.8,10.0,90,79,71,30.22,29.67,23,12,0,0.00
2013-2-20,25.3,17.5,8.9,18.0,11.1,3.0,84,76,68,30.39,30.23,13,3,0,0.00
2013-2-21,28.6,24.9,17.7,26.0,20.6,14.0,93,84,78,30.38,29.92,22,4,0,0.01
2013-2-22,35.1,31.6,27.5,33.0,29.3,24.0,96,91,81,30.00,29.82,14,5,0,0.08
2013-2-23,28.2,25.9,21.3,24.0,21.2,19.0,89,82,74,30.02,29.97,8,2,0,0.00
2013-2-24,38.2,28.0,17.9,28.0,22.7,15.0,90,81,66,30.17,30.01,5,0,0,0.01
2013-2-25,43.5,34.8,27.3,32.0,28.5,24.0,92,78,63,30.17,29.86,13,4,0,0.00
2013-2-26,35.3,33.7,33.0,33.0,31.1,28.0,95,90,77,29.86,29.41,15,3,0,1.10
2013-2-27,33.0,32.5,31.9,32.0,31.1,30.0,96,94,91,29.72,29.50,13,5,0,0.04
2013-2-28,36.3,33.4,31.4,33.0,31.0,27.0,94,90,84,30.05,29.71,16,6,0,0.02
2013-3-1,32.1,29.8,27.7,29.0,26.6,24.0,93,88,82,30.15,30.02,11,4,0,0.00
2013-3-2,30.1,27.4,21.4,26.0,22.9,17.0,90,83,76,30.19,30.12,14,4,0,0.00
2013-3-3,33.8,25.6,17.5,21.0,17.9,14.0,87,74,51,30.18,30.09,7,1,0,0.00
2013-3-4,35.3,30.8,23.9,30.0,25.0,19.0,84,79,68,30.13,29.94,16,4,0,0.00
2013-3-5,35.3,32.9,28.6,32.0,30.5,27.0,95,91,80,29.93,29.73,16,4,0,0.15
2013-3-6,30.4,28.7,27.4,29.0,26.8,25.0,95,93,90,30.32,29.92,13,4,0,0.10
2013-3-7,34.7,30.0,26.7,30.0,26.0,24.0,92,85,72,30.43,30.32,5,1,0,0.08
2013-3-8,40.0,32.5,24.7,31.0,26.8,21.0,89,79,67,30.50,30.32,13,3,0,0.00
2013-3-9,50.6,39.8,31.8,40.0,33.5,28.0,86,78,61,30.32,29.85,13,7,0,0.00
2013-3-10,61.7,54.8,49.3,51.0,45.4,38.0,92,71,61,29.84,29.64,21,8,0,0.06
2013-3-11,52.1,40.1,33.0,50.0,37.8,29.0,93,91,86,29.87,29.59,24,7,0,0.01
2013-3-12,39.8,32.9,29.0,33.0,27.2,23.0,91,80,66,30.07,29.87,19,7,0,0.01
2013-3-13,34.1,28.6,25.4,23.0,20.9,18.0,87,74,53,30.36,30.08,19,6,0,0.00
2013-3-14,36.8,30.2,23.2,31.0,26.0,20.0,94,84,65,30.37,30.14,10,2,0,0.01
2013-3-15,51.2,39.2,28.0,44.0,35.4,26.0,94,87,72,30.14,29.66,8,2,0,0.03
2013-3-16,43.8,37.1,31.9,40.0,33.7,27.0,96,87,76,30.09,29.60,12,4,0,0.00
2013-3-17,39.3,33.9,30.9,30.0,27.2,24.0,85,77,66,30.17,29.94,12,4,0,0.00
2013-3-18,38.7,32.8,25.3,35.0,27.6,-99.9,95,87,74,29.93,29.64,19,-17,0,0.06
2013-3-19,39.9,29.7,21.8,23.0,18.3,13.0,77,64,42,30.14,29.89,18,8,0,0.00
2013-3-20,29.9,24.6,19.2,21.0,13.7,8.0,82,64,46,30.14,30.07,16,7,0,0.00
2013-3-21,35.0,17.3,19.3,18.0,-30.5,-99.9,81,35,44,30.09,30.02,11,-392,0,0.00
2013-3-22,43.1,22.1,31.0,23.0,-29.5,-99.9,63,30,41,30.09,30.00,10,-415,0,0.00
2013-3-23,45.8,25.1,32.4,28.0,-21.5,-99.9,75,35,46,30.10,29.95,8,-370,0,0.00
2013-3-24,-200.0,0.0,200.0,-99.9,-99.9,-99.9,0,0,100,29.94,29.53,0,-999,0,0.00
2013-3-25,34.3,14.0,32.4,33.0,-44.7,-99.9,95,39,92,30.07,29.69,13,-578,0,0.15
2013-3-26,36.9,16.8,33.7,31.0,-38.9,-99.9,85,37,73,30.27,30.08,9,-527,0,0.00
2013-3-27,40.6,14.6,36.8,29.0,-52.3,-99.9,72,24,50,30.36,30.27,9,-624,0,0.00
2013-3-28,45.4,15.5,33.8,32.0,-52.5,-99.9,77,22,49,30.38,30.29,6,-630,0,0.00
2013-3-29,53.9,29.4,41.8,37.0,-18.2,-99.9,79,37,48,30.32,30.20,7,-397,0,0.00
2013-3-30,55.9,45.8,34.2,42.0,36.6,31.0,87,72,51,30.21,29.87,14,2,0,0.00
2013-3-31,60.5,49.6,39.0,47.0,41.4,31.0,94,75,54,29.88,29.73,18,6,0,0.01
2013-4-1,42.7,36.5,29.3,31.0,22.7,18.0,78,59,39,30.18,29.88,14,5,0,0.00
2013-4-2,45.2,33.9,21.6,22.0,18.8,16.0,84,57,31,30.32,30.18,13,2,0,0.00
2013-4-3,48.1,36.7,24.0,24.0,20.9,17.0,79,55,36,30.45,30.30,10,1,0,0.00
2013-4-4,57.4,42.6,30.8,30.0,24.9,22.0,71,52,31,30.32,29.99,8,1,0,0.00
2013-4-5,56.8,44.7,33.6,38.0,28.9,22.0,84,57,28,30.16,29.99,13,3,0,0.00
2013-4-6,70.8,54.8,36.3,44.0,36.3,26.0,72,52,36,30.12,29.68,30,9,0,0.00
2013-4-7,69.9,58.8,45.4,47.0,43.9,40.0,89,60,38,29.92,29.71,13,3,0,0.00
2013-4-8,74.1,63.4,53.2,61.0,55.4,41.0,92,76,54,29.91,29.70,20,6,0,0.21
2013-4-9,76.9,67.8,57.3,63.0,59.5,55.0,92,75,56,29.91,29.79,25,6,0,0.00
2013-4-10,68.3,55.5,43.1,64.0,52.6,42.0,96,90,78,29.83,29.64,12,3,0,1.43
2013-4-11,60.2,50.2,40.7,59.0,48.6,36.0,97,94,84,29.75,29.57,11,4,0,0.21
2013-4-12,42.8,40.0,37.6,38.0,35.3,32.0,92,83,77,29.92,29.62,16,7,0,0.00
2013-4-13,48.4,43.0,37.2,39.0,35.0,29.0,87,74,60,30.00,29.91,16,3,0,0.01
2013-4-14,73.2,57.4,42.9,51.0,44.7,38.0,84,65,40,29.99,29.70,20,7,0,0.00
2013-4-15,63.6,58.1,49.1,60.0,53.0,47.0,94,83,64,29.92,29.73,14,5,0,0.02
2013-4-16,52.0,47.9,44.2,47.0,44.5,40.0,95,88,76,30.20,29.87,12,3,0,0.90
2013-4-17,70.0,52.8,44.1,66.0,48.9,39.0,97,86,78,30.21,29.75,21,7,0,0.20
2013-4-18,70.0,60.4,43.8,65.0,58.2,41.0,97,92,83,29.75,29.50,14,7,0,2.48
2013-4-19,44.0,38.6,36.1,40.0,33.0,30.0,88,80,72,29.98,29.57,22,9,0,0.00
2013-4-20,45.2,38.5,31.9,31.0,28.9,26.0,89,70,51,30.41,29.98,9,2,0,0.00
2013-4-21,53.8,43.1,32.9,37.0,31.1,27.0,79,64,47,30.51,30.34,14,5,0,0.00
2013-4-22,66.1,52.9,38.5,43.0,37.5,32.0,81,59,35,30.33,30.04,13,4,0,0.00
2013-4-23,62.2,54.0,40.1,55.0,47.8,38.0,95,80,63,30.04,29.79,15,4,0,0.74
2013-4-24,48.2,41.4,36.4,38.0,35.5,32.0,93,81,56,30.20,29.89,19,4,0,0.15
2013-4-25,52.6,44.6,36.6,37.0,32.3,26.0,88,65,41,30.34,30.14,19,4,0,0.00
2013-4-26,63.6,51.3,37.9,46.0,40.0,32.0,81,67,52,30.39,30.28,12,3,0,0.00
2013-4-27,64.4,54.7,45.1,52.0,45.9,42.0,95,74,46,30.30,29.95,19,4,0,0.20
2013-4-28,60.1,55.9,53.2,56.0,53.9,52.0,97,93,84,29.93,29.82,6,1,0,0.13
2013-4-29,71.1,60.3,49.1,58.0,53.8,48.0,96,80,61,29.95,29.79,16,4,0,0.01
2013-4-30,81.5,68.8,56.1,64.0,58.3,52.0,87,70,53,29.93,29.82,15,5,0,0.00
2013-5-1,81.8,71.1,58.0,60.0,56.8,53.0,87,63,38,30.09,29.93,16,2,0,0.00
2013-5-2,79.0,64.3,46.3,62.0,55.2,43.0,88,73,53,30.10,30.00,12,2,0,0.02
2013-5-3,72.5,58.0,43.4,63.0,52.5,40.0,95,83,65,30.03,29.83,16,4,0,0.25
2013-5-4,66.1,60.6,55.0,58.0,53.4,49.0,91,78,61,29.99,29.86,18,4,0,0.02
2013-5-5,68.1,59.3,53.3,56.0,52.5,50.0,95,79,57,29.99,29.89,10,2,0,0.03
2013-5-6,73.2,63.7,55.3,55.0,52.1,48.0,86,67,53,29.96,29.88,8,3,0,0.00
2013-5-7,76.4,65.5,50.7,57.0,51.3,44.0,79,61,46,30.00,29.91,10,1,0,0.00
2013-5-8,80.6,68.1,52.3,58.0,53.2,48.0,86,61,37,29.99,29.90,5,0,0,0.00
2013-5-9,72.3,63.2,58.6,62.0,58.1,53.0,95,83,60,29.97,29.79,13,3,0,0.71
2013-5-10,64.8,56.3,45.3,61.0,53.5,42.0,95,90,84,29.94,29.77,13,2,0,0.01
2013-5-11,64.2,51.7,43.7,54.0,41.8,32.0,94,72,37,30.05,29.86,13,3,0,0.00
2013-5-12,56.9,47.8,36.9,34.0,30.7,27.0,79,54,33,30.13,30.05,13,2,0,0.00
2013-5-13,66.6,53.9,37.5,41.0,33.4,29.0,80,50,25,30.19,30.05,12,1,0,0.00
2013-5-14,86.5,70.2,53.1,64.0,53.6,39.0,73,57,45,30.05,29.70,17,5,0,0.00
2013-5-15,86.2,76.2,69.6,63.0,58.4,55.0,69,55,39,29.80,29.70,16,4,0,0.00
2013-5-16,84.6,72.0,59.8,62.0,57.9,53.0,91,65,35,29.90,29.76,7,1,0,0.23
2013-5-17,80.9,69.0,61.1,66.0,62.3,58.0,92,80,53,29.97,29.90,11,2,0,0.29
2013-5-18,77.5,69.5,60.8,65.0,62.8,59.0,95,80,63,30.01,29.89,11,2,0,0.00
2013-5-19,87.1,75.5,62.4,71.0,65.6,60.0,94,73,50,29.93,29.74,14,4,0,0.00
2013-5-20,86.3,78.2,71.8,71.0,66.6,61.0,87,69,49,29.82,29.69,19,5,0,0.00
2013-5-21,82.0,72.8,63.4,69.0,64.6,61.0,93,76,56,29.75,29.64,23,5,0,0.37
2013-5-22,75.0,68.6,62.1,66.0,61.7,57.0,93,80,54,29.74,29.60,17,3,0,0.39
2013-5-23,61.6,53.8,41.9,58.0,49.4,36.0,93,85,73,30.23,29.75,17,3,0,0.03
2013-5-24,65.2,51.6,37.9,43.0,38.9,35.0,90,65,37,30.39,30.22,7,1,0,0.00
2013-5-25,61.9,53.1,44.1,50.0,39.1,33.0,87,61,38,30.38,30.19,10,1,0,0.04
2013-5-26,66.0,57.7,48.8,56.0,49.7,45.0,93,75,59,30.27,30.05,15,4,0,0.37
2013-5-27,77.1,64.2,57.5,68.0,61.0,56.0,96,89,71,30.09,29.81,18,5,0,1.11
2013-5-28,79.0,71.9,63.6,72.0,66.3,62.0,94,82,72,29.86,29.76,20,5,0,0.01
2013-5-29,85.0,75.7,66.0,70.0,65.1,61.0,88,71,54,29.93,29.84,19,4,0,0.00
2013-5-30,83.6,76.4,65.8,70.0,67.3,63.0,93,74,60,29.93,29.81,20,6,0,0.92
2013-5-31,75.9,71.0,63.8,71.0,67.2,62.0,93,87,79,29.89,29.73,14,4,0,0.90
2013-6-1,73.1,67.2,61.5,66.0,63.2,59.0,95,87,77,29.79,29.66,21,4,0,0.50
2013-6-2,64.5,59.6,52.4,61.0,56.2,47.0,95,89,83,30.01,29.75,10,1,0,0.00
2013-6-3,67.9,57.9,45.7,50.0,47.1,44.0,92,69,49,30.10,30.00,10,1,0,0.00
2013-6-4,73.8,63.9,52.1,53.0,49.7,47.0,84,62,42,30.11,30.02,10,2,0,0.00
2013-6-5,79.9,68.9,58.4,58.0,55.1,52.0,79,63,45,30.03,29.83,9,1,0,0.00
2013-6-6,78.5,68.7,59.5,59.0,54.7,49.0,77,62,50,29.83,29.75,11,2,0,0.00
2013-6-7,74.0,63.4,55.8,59.0,54.4,48.0,87,74,51,29.88,29.80,7,2,0,0.00
2013-6-8,78.7,66.5,49.4,57.0,51.0,45.0,85,60,40,29.95,29.87,8,0,0,0.00
2013-6-9,81.2,72.2,64.7,65.0,59.9,55.0,89,67,44,29.95,29.76,13,3,0,0.00
2013-6-10,81.5,71.6,62.8,65.0,62.0,59.0,96,74,49,29.83,29.70,8,1,0,0.00
2013-6-11,86.0,75.4,62.3,70.0,64.1,58.0,89,69,46,29.92,29.79,12,1,0,0.00
2013-6-12,93.4,81.7,71.0,74.0,71.0,68.0,91,72,47,29.86,29.54,20,3,0,0.00
2013-6-13,76.9,69.9,61.0,70.0,60.8,54.0,94,74,49,29.98,29.56,12,2,0,0.05
2013-6-14,80.5,68.1,54.6,60.0,56.8,52.0,91,69,46,30.07,29.95,6,0,0,0.00
2013-6-15,82.0,73.1,64.3,67.0,62.7,59.0,85,71,49,30.04,29.86,20,2,0,0.00
2013-6-16,81.4,73.8,67.9,70.0,67.0,64.0,90,79,67,29.94,29.85,15,1,0,0.00
2013-6-17,86.9,77.4,66.8,72.0,65.6,61.0,97,70,42,29.91,29.83,4,0,0,0.01
2013-6-18,83.3,71.8,61.4,66.0,61.9,55.0,92,72,50,29.97,29.83,13,2,0,0.00
2013-6-19,80.7,70.3,59.0,62.0,59.5,55.0,91,70,52,30.07,29.97,17,2,0,0.00
2013-6-20,85.7,77.0,65.9,67.0,63.2,59.0,81,64,48,30.12,30.04,10,1,0,0.00
2013-6-21,87.9,74.8,67.9,74.0,66.3,62.0,90,76,55,30.10,29.92,18,2,0,0.08
2013-6-22,81.5,72.5,66.7,73.0,68.3,65.0,95,86,74,30.11,29.95,11,2,0,1.13
2013-6-23,81.7,73.8,66.2,72.0,68.1,65.0,95,83,67,30.04,29.94,16,3,0,0.01
2013-6-24,86.3,73.8,67.0,75.0,68.7,65.0,95,84,64,30.06,29.86,11,2,0,0.13
2013-6-25,87.9,75.7,68.0,77.0,70.8,66.0,94,85,68,29.94,29.79,17,3,0,0.17
2013-6-26,81.8,75.1,67.8,74.0,70.5,65.0,94,86,71,29.84,29.67,15,2,0,0.27
2013-6-27,88.9,78.7,70.3,75.0,71.1,67.0,97,79,54,29.76,29.66,11,2,0,0.00
2013-6-28,83.4,73.2,66.3,67.0,63.7,60.0,92,74,47,29.69,29.57,14,2,0,0.07
2013-6-29,73.4,66.3,63.6,66.0,64.0,62.0,96,92,78,29.68,29.54,6,1,0,0.41
2013-6-30,76.4,67.9,63.2,64.0,62.1,58.0,95,82,60,29.88,29.68,14,2,0,0.01
2013-7-1,77.1,68.0,62.8,64.0,59.5,53.0,88,75,61,29.96,29.86,14,3,0,0.03
2013-7-2,66.1,63.5,61.4,62.0,59.1,56.0,94,86,73,30.00,29.93,11,2,0,0.04
2013-7-3,72.3,66.3,62.6,65.0,62.9,61.0,97,89,75,30.06,29.97,5,0,0,0.00
2013-7-4,78.3,69.5,60.0,65.0,62.0,58.0,93,78,58,30.10,30.01,9,0,0,0.00
2013-7-5,81.3,72.3,62.8,69.0,65.7,60.0,97,81,62,30.07,29.98,6,1,0,0.00
2013-7-6,75.3,71.4,67.7,70.0,68.4,66.0,95,90,82,30.03,29.96,3,0,0,0.00
2013-7-7,84.8,74.8,66.1,74.0,69.3,65.0,97,84,64,30.02,29.94,14,1,0,0.00
2013-7-8,86.0,77.2,71.6,75.0,71.9,69.0,91,84,65,30.04,29.94,17,2,0,0.00
2013-7-9,89.2,80.5,75.3,78.0,75.0,72.0,91,84,66,29.97,29.86,4,0,0,0.00
2013-7-10,84.9,77.2,68.4,77.0,71.9,61.0,93,84,62,29.95,29.79,17,2,0,0.07
2013-7-11,79.6,69.6,60.1,63.0,59.3,55.0,92,72,48,30.04,29.94,5,0,0,0.00
2013-7-12,82.3,69.8,54.6,64.0,58.9,52.0,93,71,47,30.10,30.02,6,0,0,0.00
2013-7-13,83.6,74.3,63.5,68.0,63.6,59.0,84,70,53,30.10,30.03,7,0,0,0.00
2013-7-14,89.0,78.8,67.6,74.0,69.5,64.0,89,74,57,30.14,30.07,9,1,0,0.00
2013-7-15,87.7,80.5,73.4,75.0,73.1,70.0,91,78,64,30.22,30.13,12,1,0,0.00
2013-7-16,90.5,81.5,71.5,75.0,72.3,69.0,94,75,55,30.28,30.21,5,0,0,0.00
2013-7-17,91.8,82.8,72.8,75.0,73.1,70.0,91,74,55,30.29,30.13,3,0,0,0.00
2013-7-18,92.3,83.3,73.9,77.0,74.8,71.0,92,77,56,30.15,29.95,13,1,0,0.00
2013-7-19,91.8,83.6,74.7,77.0,74.9,72.0,93,76,59,29.96,29.77,17,3,0,0.00
2013-7-20,86.6,78.8,70.4,75.0,71.5,66.0,96,80,52,29.88,29.76,13,1,0,1.06
2013-7-21,80.2,73.8,66.2,73.0,70.0,65.0,97,88,74,29.92,29.81,6,0,0,0.00
2013-7-22,83.4,75.4,68.4,73.0,70.2,67.0,96,84,66,29.83,29.72,5,0,0,0.38
2013-7-23,82.6,73.4,62.0,71.0,66.4,56.0,95,80,58,29.90,29.65,14,2,0,0.02
2013-7-24,74.8,64.4,54.4,56.0,53.2,50.0,87,69,47,30.02,29.89,9,1,0,0.00
2013-7-25,77.2,66.2,52.3,60.0,56.2,50.0,93,72,52,30.08,30.00,6,0,0,0.00
2013-7-26,74.2,67.6,60.6,66.0,61.9,57.0,93,82,64,30.04,29.85,10,1,0,0.02
2013-7-27,71.0,63.4,52.7,65.0,56.2,48.0,94,78,55,29.92,29.84,15,2,0,0.00
2013-7-28,72.0,61.6,50.2,55.0,51.5,47.0,90,71,51,30.02,29.90,15,1,0,0.00
2013-7-29,77.1,65.0,52.2,59.0,54.7,50.0,91,71,49,30.14,30.02,5,0,0,0.00
2013-7-30,68.9,65.5,61.3,66.0,61.7,56.0,95,87,80,30.14,30.03,11,1,0,0.28
2013-7-31,76.7,69.0,64.6,71.0,67.1,63.0,98,94,81,30.03,29.92,9,1,0,0.02
2013-8-1,80.3,70.1,61.3,68.0,60.8,58.0,97,75,49,29.98,29.91,16,2,0,0.01
2013-8-2,83.0,71.8,61.4,71.0,65.1,57.0,94,80,66,29.93,29.86,18,3,0,0.33
2013-8-3,80.9,72.1,63.0,69.0,64.3,56.0,97,78,55,30.06,29.90,10,1,0,0.04
2013-8-4,78.7,68.3,56.9,62.0,57.9,54.0,92,71,50,30.14,30.06,3,0,0,0.00
2013-8-5,76.4,68.8,59.5,65.0,61.1,56.0,91,77,58,30.08,29.85,5,1,0,0.00
2013-8-6,80.1,72.7,67.5,73.0,68.3,65.0,93,86,75,29.89,29.82,7,0,0,0.00
2013-8-7,81.4,75.0,69.2,75.0,72.1,68.0,96,91,81,29.86,29.79,8,1,0,0.00
2013-8-8,78.7,72.5,67.0,72.0,67.7,60.0,96,85,74,29.93,29.85,6,0,0,0.00
2013-8-9,81.4,71.6,61.3,67.0,62.7,59.0,94,75,53,30.01,29.92,7,0,0,0.00
2013-8-10,82.2,74.0,65.3,71.0,64.6,62.0,93,74,52,30.07,30.00,10,0,0,0.00
2013-8-11,81.6,70.8,58.7,66.0,61.6,56.0,92,74,51,30.09,30.02,6,0,0,0.00
2013-8-12,83.0,73.9,64.2,71.0,66.4,61.0,92,78,59,30.04,29.82,9,1,0,0.00
2013-8-13,72.8,66.5,56.4,67.0,57.9,49.0,96,75,50,30.10,29.85,12,2,0,0.00
2013-8-14,71.3,60.3,49.4,55.0,51.5,47.0,92,74,53,30.20,30.10,6,0,0,0.00
2013-8-15,73.9,63.4,51.4,56.0,52.9,49.0,92,71,50,30.17,30.07,6,0,0,0.00
2013-8-16,77.4,68.6,60.5,58.0,56.2,54.0,84,67,46,30.14,30.09,6,1,0,0.00
2013-8-17,79.6,69.2,57.1,60.0,57.3,54.0,91,68,44,30.19,30.11,12,1,0,0.00
2013-8-18,81.8,71.0,56.6,67.0,61.7,54.0,90,73,57,30.15,30.04,10,1,0,0.00
2013-8-19,83.6,72.7,60.5,67.0,63.9,59.0,95,75,53,30.09,30.00,2,0,0,0.00
2013-8-20,86.0,74.8,63.6,69.0,65.8,61.0,93,75,52,30.10,30.01,9,1,0,0.00
2013-8-21,87.7,76.3,65.2,71.0,67.3,64.0,95,76,51,30.08,29.97,11,1,0,0.00
2013-8-22,76.8,72.4,69.7,70.0,67.9,67.0,92,85,77,30.09,29.96,9,1,0,0.03
2013-8-23,82.8,72.7,63.3,69.0,65.9,62.0,96,80,58,30.11,30.03,4,0,0,0.00
2013-8-24,84.8,73.0,61.2,64.0,60.6,57.0,88,67,44,30.21,30.10,8,2,0,0.00
2013-8-25,87.4,74.7,60.8,65.0,61.3,56.0,84,65,45,30.24,30.14,12,1,0,0.00
2013-8-26,90.0,77.6,65.6,73.0,67.6,61.0,92,73,50,30.16,30.00,10,1,0,0.00
2013-8-27,91.6,80.7,71.6,75.0,71.9,69.0,93,76,53,30.00,29.87,14,1,0,0.00
2013-8-28,91.6,80.1,71.8,78.0,71.5,67.0,93,76,61,29.96,29.85,12,2,0,0.00
2013-8-29,88.0,77.4,71.3,73.0,70.1,68.0,95,80,54,30.02,29.93,5,0,0,0.00
2013-8-30,95.3,79.5,66.1,76.0,70.5,64.0,94,76,50,29.93,29.74,12,1,0,0.32
2013-8-31,89.3,75.4,67.3,75.0,69.2,65.0,94,82,60,29.79,29.66,9,0,0,0.09
2013-9-1,81.5,72.5,67.3,72.0,69.6,66.0,97,91,72,29.78,29.71,5,0,0,0.01
2013-9-2,82.1,72.7,63.2,70.0,64.7,60.0,96,78,51,29.92,29.73,7,1,0,0.00
2013-9-3,76.1,65.3,56.3,60.0,57.1,55.0,95,77,52,30.05,29.92,5,0,0,0.00
2013-9-4,84.6,68.9,54.3,62.0,58.3,52.0,94,72,42,30.12,30.03,5,0,0,0.00
2013-9-5,85.2,71.8,60.8,67.0,61.6,56.0,91,72,54,30.16,30.08,10,1,0,0.00
2013-9-6,85.2,72.4,59.7,68.0,61.1,54.0,83,69,53,30.17,30.00,11,1,0,0.00
2013-9-7,87.6,75.8,64.2,68.0,65.3,62.0,94,72,43,30.01,29.87,15,1,0,0.01
2013-9-8,86.0,76.9,68.3,74.0,69.2,66.0,93,78,58,29.93,29.86,6,0,0,0.04
2013-9-9,94.4,80.0,67.9,75.0,71.1,66.0,97,77,50,29.92,29.81,13,2,0,0.00
2013-9-10,97.0,83.5,71.3,73.0,70.4,66.0,94,68,36,30.02,29.89,11,1,0,0.00
2013-9-11,95.4,82.5,70.9,71.0,68.2,63.0,93,66,35,30.05,29.93,12,1,0,0.02
2013-9-12,85.2,72.3,60.2,70.0,64.1,53.0,96,78,39,30.00,29.86,10,1,0,0.52
2013-9-13,67.8,60.0,49.9,58.0,51.6,46.0,95,76,48,30.10,29.99,11,1,0,0.01
2013-9-14,72.2,58.0,45.5,47.0,43.7,40.0,92,63,32,30.17,30.04,9,1,0,0.00
2013-9-15,75.5,61.0,49.5,61.0,52.3,45.0,95,75,45,30.08,29.95,10,1,0,0.21
2013-9-16,68.0,60.2,53.0,59.0,54.4,50.0,95,82,61,30.28,30.08,11,1,0,0.00
2013-9-17,73.6,61.2,49.7,56.0,52.4,48.0,92,75,51,30.29,30.09,11,1,0,0.00
2013-9-18,83.6,70.9,60.9,68.0,62.4,55.0,89,75,58,30.09,29.93,11,2,0,0.00
2013-9-19,88.9,76.8,67.4,74.0,70.4,66.0,96,82,58,29.96,29.79,18,4,0,0.66
2013-9-20,77.4,69.2,59.0,72.0,65.5,54.0,95,88,76,29.86,29.75,10,1,0,0.41
2013-9-21,69.4,59.9,51.5,54.0,50.7,48.0,94,74,49,29.91,29.78,13,2,0,0.01
2013-9-22,71.5,57.8,45.3,53.0,48.3,44.0,95,73,45,30.01,29.91,6,0,0,0.00
2013-9-23,73.9,59.4,46.2,50.0,47.6,44.0,91,68,41,30.07,29.98,6,1,0,0.00
2013-9-24,77.1,62.4,48.8,56.0,51.1,46.0,90,69,46,30.01,29.85,13,1,0,0.00
2013-9-25,79.7,65.7,55.0,61.0,54.2,49.0,82,68,49,29.90,29.83,4,0,0,0.00
2013-9-26,80.3,65.7,53.8,57.0,52.3,50.0,88,65,36,30.04,29.89,6,0,0,0.00
2013-9-27,81.8,67.4,53.6,58.0,53.0,49.0,85,63,39,30.13,30.01,10,1,0,0.00
2013-9-28,83.4,69.5,53.7,63.0,56.3,51.0,90,65,44,30.07,29.92,14,2,0,0.00
2013-9-29,72.5,64.4,55.9,61.0,55.2,50.0,94,73,49,29.99,29.91,10,1,0,0.11
2013-9-30,75.5,61.3,49.2,59.0,54.4,47.0,95,79,52,29.98,29.86,7,0,0,0.00
2013-10-1,80.4,69.0,60.4,66.0,63.1,59.0,96,83,59,29.99,29.90,13,2,0,0.00
2013-10-2,76.0,68.5,64.3,69.0,66.1,63.0,97,92,78,30.05,29.95,8,0,0,0.01
2013-10-3,83.6,71.4,65.3,70.0,66.5,63.0,96,85,59,29.96,29.84,12,1,0,0.44
2013-10-4,85.6,74.0,65.4,71.0,67.3,63.0,93,81,58,29.95,29.88,11,2,0,0.00
2013-10-5,80.4,70.2,66.4,72.0,67.8,65.0,96,92,71,29.93,29.75,16,2,0,0.90
2013-10-6,66.7,55.9,47.7,66.0,48.4,40.0,96,77,48,29.79,29.68,13,1,0,0.22
2013-10-7,67.8,54.2,43.3,50.0,46.2,42.0,94,76,47,30.09,29.78,11,1,0,0.02
2013-10-8,75.0,60.2,47.2,52.0,48.6,45.0,91,68,41,30.20,30.09,3,0,0,0.00
2013-10-9,73.5,58.5,47.7,50.0,47.2,44.0,86,68,41,30.21,30.09,7,1,0,0.00
2013-10-10,76.2,62.6,50.4,58.0,52.6,47.0,90,72,50,30.15,30.01,8,0,0,0.00
2013-10-11,76.8,64.9,52.4,57.0,53.8,50.0,91,69,47,30.06,29.94,12,1,0,0.00
2013-10-12,76.1,64.5,54.6,64.0,56.6,49.0,86,76,60,30.14,29.96,10,1,0,0.00
2013-10-13,68.5,55.8,43.1,48.0,40.8,35.0,92,61,30,30.36,30.14,7,0,0,0.00
2013-10-14,68.4,53.9,38.7,46.0,41.7,36.0,93,67,38,30.36,30.12,9,0,0,0.00
2013-10-15,64.7,58.6,51.8,62.0,54.4,44.0,95,86,74,30.11,29.82,15,3,0,0.04
2013-10-16,55.8,50.0,42.7,53.0,44.8,41.0,92,82,71,29.96,29.86,13,1,0,0.01
2013-10-17,57.0,48.5,43.5,47.0,43.6,39.0,94,84,60,29.95,29.85,12,0,0,0.07
2013-10-18,54.5,47.1,41.8,47.0,41.7,39.0,90,81,70,29.98,29.88,9,1,0,0.00
2013-10-19,55.0,47.2,40.9,43.0,39.0,36.0,94,75,50,29.95,29.84,11,2,0,0.23
2013-10-20,66.9,53.6,39.7,46.0,41.7,36.0,88,66,44,29.92,29.78,22,5,0,0.00
2013-10-21,55.3,46.7,32.7,45.0,37.8,26.0,87,72,53,30.02,29.84,11,2,0,0.00
2013-10-22,47.5,37.4,30.6,39.0,31.8,25.0,94,81,58,30.02,29.88,9,1,0,0.57
2013-10-23,44.3,37.8,32.3,36.0,33.1,30.0,95,84,62,30.07,29.89,9,1,0,0.01
2013-10-24,41.6,38.0,31.3,35.0,30.1,25.0,92,74,54,30.33,30.05,17,2,0,0.02
2013-10-25,50.8,38.4,26.5,32.0,28.4,23.0,87,69,46,30.45,30.18,10,1,0,0.00
2013-10-26,56.5,45.0,37.2,40.0,33.1,28.0,77,64,44,30.18,29.89,23,5,0,0.00
2013-10-27,56.5,42.6,29.3,36.0,31.0,27.0,90,66,41,30.11,30.01,10,1,0,0.00
2013-10-28,60.9,46.9,33.7,42.0,34.2,28.0,87,64,39,30.30,30.07,7,0,0,0.00
2013-10-29,57.3,47.5,38.2,48.0,42.3,35.0,92,82,67,30.32,30.14,6,1,0,0.03
2013-10-30,65.3,55.2,49.9,63.0,53.9,48.0,97,95,91,30.14,29.83,11,4,0,0.08
2013-10-31,65.0,59.6,48.9,62.0,58.0,47.0,96,94,89,29.82,29.26,18,6,0,1.59
2013-11-1,51.5,48.0,44.7,46.0,44.2,43.0,94,87,74,29.76,29.45,11,2,0,0.01
2013-11-2,47.6,42.9,36.8,43.0,39.5,35.0,94,88,75,30.15,29.75,13,2,0,0.00
2013-11-3,52.7,41.5,30.5,42.0,34.7,29.0,100,79,51,30.31,30.14,12,1,0,0.01
2013-11-4,57.2,50.3,40.7,45.0,41.3,35.0,82,72,57,30.27,30.17,14,4,0,0.00
2013-11-5,59.4,53.6,50.6,50.0,47.1,44.0,92,79,65,30.29,30.00,20,3,0,0.00
2013-11-6,59.5,49.1,35.7,53.0,46.0,33.0,94,89,67,30.16,29.86,19,6,0,0.25
2013-11-7,46.9,36.7,29.8,37.0,31.2,27.0,92,81,62,30.30,30.16,13,2,0,0.01
2013-11-8,49.6,40.6,29.8,34.0,31.1,27.0,92,71,51,30.37,30.07,17,2,0,0.00
2013-11-9,60.0,46.5,41.1,41.0,37.0,33.0,82,70,49,30.14,29.98,21,5,0,0.00
2013-11-10,48.7,40.2,33.0,37.0,32.3,29.0,86,74,53,30.36,30.15,10,2,0,0.00
2013-11-11,51.1,39.8,27.5,42.0,34.2,23.0,94,81,68,30.44,30.10,18,3,0,0.06
2013-11-12,32.4,25.6,20.9,26.0,20.6,17.0,86,81,67,30.70,30.45,11,2,0,0.04
2013-11-13,38.2,28.2,17.6,26.0,20.7,15.0,92,74,56,30.66,30.29,16,3,0,0.00
2013-11-14,52.3,40.1,29.4,30.0,26.1,22.0,76,59,37,30.27,30.04,25,7,0,0.00
2013-11-15,52.0,45.3,38.1,40.0,33.3,28.0,88,63,51,30.06,29.97,12,2,0,0.00
2013-11-16,61.2,54.2,43.8,58.0,50.6,41.0,95,87,75,29.98,29.64,26,8,0,0.06
2013-11-17,68.2,58.0,43.7,64.0,54.3,39.0,95,87,75,29.81,29.23,21,8,0,0.41
2013-11-18,47.5,40.3,31.6,39.0,32.5,27.0,89,75,56,30.26,29.82,21,4,0,0.00
2013-11-19,42.9,33.8,25.7,32.0,28.0,23.0,90,80,63,30.37,30.25,9,1,0,0.00
2013-11-20,43.9,37.5,28.8,38.0,31.3,26.0,88,79,65,30.30,30.10,17,4,0,0.01
2013-11-21,48.2,46.7,43.3,47.0,43.3,37.0,96,88,73,30.19,30.12,9,2,0,0.49
2013-11-22,47.1,39.2,29.9,46.0,36.9,28.0,97,91,81,30.48,30.16,11,2,0,0.04
2013-11-23,29.7,23.8,16.2,27.0,17.1,9.0,91,76,60,30.70,30.44,15,4,0,0.00
2013-11-24,27.1,18.7,11.1,13.0,9.3,6.0,84,68,42,30.77,30.48,7,1,0,0.00
2013-11-25,32.6,28.1,19.9,26.0,20.0,12.0,88,72,63,30.47,30.16,18,5,0,0.00
2013-11-26,36.9,31.0,21.6,30.0,25.4,11.0,86,80,65,30.16,30.01,13,3,0,0.00
2013-11-27,27.8,19.8,13.6,15.0,11.2,8.0,83,70,54,30.32,30.12,15,4,0,0.00
2013-11-28,37.8,27.3,19.4,22.0,17.6,14.0,80,68,52,30.50,30.22,14,3,0,0.00
2013-11-29,37.3,26.6,14.7,24.0,19.2,12.0,90,75,57,30.65,30.45,10,2,0,0.00
2013-11-30,50.6,38.1,28.1,33.0,28.1,22.0,82,68,48,30.43,30.10,21,4,0,0.00
2013-12-1,47.3,37.3,29.3,36.0,31.9,27.0,92,81,62,30.10,29.97,6,0,0,0.00
2013-12-2,44.0,38.0,33.4,38.0,34.0,29.0,93,85,74,29.97,29.73,12,2,0,0.02
2013-12-3,51.4,45.6,38.6,49.0,44.0,37.0,95,94,90,29.75,29.69,14,5,0,0.00
2013-12-4,59.9,51.6,41.5,58.0,50.2,41.0,98,95,85,29.74,29.52,18,5,0,0.03
2013-12-5,46.5,29.4,22.8,43.0,23.8,15.0,89,79,72,30.25,29.74,15,6,0,0.00
2013-12-6,22.6,20.1,13.3,16.0,13.7,9.0,82,76,72,30.55,30.24,9,3,0,0.00
2013-12-7,23.2,15.6,8.3,12.0,7.5,4.0,84,71,49,30.71,30.55,6,1,0,0.00
2013-12-8,27.5,23.4,16.1,26.0,19.7,11.0,94,86,77,30.58,30.00,15,3,0,0.00
2013-12-9,26.3,21.0,11.4,24.0,15.9,4.0,92,80,70,30.28,30.00,14,6,0,0.00
2013-12-10,26.2,14.7,2.9,16.0,7.4,-2.0,82,73,63,30.36,30.16,16,4,0,0.00
2013-12-11,23.4,16.0,2.8,19.0,10.4,-3.0,85,78,70,30.63,30.32,14,2,0,0.00
2013-12-12,24.0,12.4,-0.5,15.0,5.4,-6.0,80,74,63,30.63,30.29,19,5,0,0.00
2013-12-13,37.3,26.3,15.9,30.0,20.6,10.0,95,79,65,30.28,30.08,10,1,0,0.00
2013-12-14,32.9,30.0,23.5,32.0,28.7,21.0,96,95,91,30.08,29.82,12,2,0,0.05
2013-12-15,23.0,16.8,11.1,21.0,13.2,8.0,91,85,80,30.16,30.01,13,4,0,0.00
2013-12-16,22.7,18.5,14.5,21.0,16.1,12.0,93,90,86,30.16,30.04,7,0,0,0.00
2013-12-17,28.7,22.2,18.4,27.0,19.6,14.0,94,90,78,30.18,30.05,13,2,0,0.03
2013-12-18,37.1,24.3,10.5,30.0,17.4,7.0,85,75,59,30.25,29.94,22,4,0,0.01
2013-12-19,44.0,40.5,37.6,42.0,37.1,32.0,93,87,79,29.95,29.80,17,4,0,0.19
2013-12-20,56.4,45.1,33.6,55.0,44.0,32.0,97,96,92,29.81,29.67,10,2,0,0.20
2013-12-21,35.8,20.8,32.0,35.0,-17.7,-99.9,100,60,95,29.83,29.49,10,-378,0,0.53
2013-12-22,35.6,4.7,34.4,34.0,-81.8,-99.9,95,13,92,30.16,29.54,14,-863,0,0.00
2013-12-23,23.6,7.4,20.0,19.0,-60.4,-99.9,86,27,76,30.51,30.16,9,-661,0,0.00
2013-12-24,17.8,4.1,3.9,11.0,-63.6,-99.9,87,26,74,30.62,30.41,8,-655,0,0.00
2013-12-25,-200.0,0.0,200.0,-99.9,-99.9,-99.9,0,0,100,30.41,30.12,0,-999,0,0.00
2013-12-26,35.7,10.8,21.6,28.0,-57.2,-99.9,85,26,69,30.35,30.12,13,-655,0,0.00
2013-12-27,44.8,13.3,28.0,35.0,-54.9,-99.9,90,26,69,30.36,30.16,12,-658,0,0.00
2013-12-28,52.2,28.2,36.5,40.0,-11.3,-99.9,83,48,61,30.16,29.89,14,-342,0,0.00
2013-12-29,38.0,30.6,17.8,32.0,27.4,15.0,94,88,79,30.18,29.80,15,4,0,0.00
2013-12-30,17.6,14.6,10.3,14.0,9.4,5.0,86,80,70,30.36,30.19,13,1,0,0.00
2013-12-31,25.7,18.8,10.7,19.0,14.1,7.0,88,82,70,30.43,30.21,12,2,0,0.00
2014-1-1,27.7,22.7,17.6,24.0,19.4,15.0,91,87,83,30.26,30.10,11,2,0,0.00
2014-1-2,17.9,13.5,-0.4,15.0,10.7,-4.0,91,88,84,30.44,30.05,14,3,0,0.00